sensor_id;sensor_type;location;lat;lon;timestamp;temperature;humidity
12060;DHT22;6091;51.432;6.880;2023-03-14T00:01:16;23.90;33.10
12060;DHT22;6091;51.432;6.880;2023-03-14T00:03:44;23.90;33.20
12060;DHT22;6091;51.432;6.880;2023-03-14T00:06:12;23.90;33.20
12060;DHT22;6091;51.432;6.880;2023-03-14T00:08:41;23.90;33.80
12060;DHT22;6091;51.432;6.880;2023-03-14T00:11:16;23.80;33.10
12060;DHT22;6091;51.432;6.880;2023-03-14T00:13:48;23.90;33.20
12060;DHT22;6091;51.432;6.880;2023-03-14T00:16:16;23.80;33.10
12060;DHT22;6091;51.432;6.880;2023-03-14T00:18:43;23.80;33.20
12060;DHT22;6091;51.432;6.880;2023-03-14T00:21:11;23.90;33.20
12060;DHT22;6091;51.432;6.880;2023-03-14T00:23:40;23.80;33.20
12060;DHT22;6091;51.432;6.880;2023-03-14T00:26:11;23.80;33.20
12060;DHT22;6091;51.432;6.880;2023-03-14T00:28:41;23.80;33.20
12060;DHT22;6091;51.432;6.880;2023-03-14T00:31:10;23.80;33.20
12060;DHT22;6091;51.432;6.880;2023-03-14T00:33:38;21.30;31.20
12060;DHT22;6091;51.432;6.880;2023-03-14T00:36:08;23.80;33.20
12060;DHT22;6091;51.432;6.880;2023-03-14T00:38:38;23.80;33.30
12060;DHT22;6091;51.432;6.880;2023-03-14T00:41:08;23.80;33.30
12060;DHT22;6091;51.432;6.880;2023-03-14T00:43:37;23.80;33.30
12060;DHT22;6091;51.432;6.880;2023-03-14T00:46:05;23.80;33.90
12060;DHT22;6091;51.432;6.880;2023-03-14T00:48:33;23.80;33.30
12060;DHT22;6091;51.432;6.880;2023-03-14T00:51:05;23.80;33.30
12060;DHT22;6091;51.432;6.880;2023-03-14T00:53:37;23.80;33.30
12060;DHT22;6091;51.432;6.880;2023-03-14T00:56:08;23.80;33.40
12060;DHT22;6091;51.432;6.880;2023-03-14T00:58:36;23.70;33.20
12060;DHT22;6091;51.432;6.880;2023-03-14T01:01:09;23.80;33.30
12060;DHT22;6091;51.432;6.880;2023-03-14T01:03:38;23.70;33.30
12060;DHT22;6091;51.432;6.880;2023-03-14T01:06:08;23.70;33.30
12060;DHT22;6091;51.432;6.880;2023-03-14T01:08:36;23.70;33.30
12060;DHT22;6091;51.432;6.880;2023-03-14T01:11:09;23.70;33.30
12060;DHT22;6091;51.432;6.880;2023-03-14T01:13:39;23.70;33.40
12060;DHT22;6091;51.432;6.880;2023-03-14T01:16:07;23.70;33.30
12060;DHT22;6091;51.432;6.880;2023-03-14T01:18:37;23.70;33.30
12060;DHT22;6091;51.432;6.880;2023-03-14T01:21:23;23.60;33.30
12060;DHT22;6091;51.432;6.880;2023-03-14T01:23:56;23.60;33.40
12060;DHT22;6091;51.432;6.880;2023-03-14T01:26:26;23.60;33.30
12060;DHT22;6091;51.432;6.880;2023-03-14T01:28:56;23.60;33.30
12060;DHT22;6091;51.432;6.880;2023-03-14T01:31:23;23.60;33.30
12060;DHT22;6091;51.432;6.880;2023-03-14T01:33:51;23.60;33.40
12060;DHT22;6091;51.432;6.880;2023-03-14T01:36:19;23.60;33.40
12060;DHT22;6091;51.432;6.880;2023-03-14T01:38:46;23.60;33.40
12060;DHT22;6091;51.432;6.880;2023-03-14T01:41:20;23.50;33.40
12060;DHT22;6091;51.432;6.880;2023-03-14T01:43:50;23.50;33.40
12060;DHT22;6091;51.432;6.880;2023-03-14T01:51:56;23.50;33.50
12060;DHT22;6091;51.432;6.880;2023-03-14T01:54:40;23.50;33.40
12060;DHT22;6091;51.432;6.880;2023-03-14T01:57:19;23.50;33.50
12060;DHT22;6091;51.432;6.880;2023-03-14T02:00:11;23.50;33.50
12060;DHT22;6091;51.432;6.880;2023-03-14T02:02:50;23.50;33.60
12060;DHT22;6091;51.432;6.880;2023-03-14T02:05:23;23.40;33.40
12060;DHT22;6091;51.432;6.880;2023-03-14T02:07:54;23.40;33.40
12060;DHT22;6091;51.432;6.880;2023-03-14T02:10:27;23.40;33.40
12060;DHT22;6091;51.432;6.880;2023-03-14T02:12:59;23.40;34.10
12060;DHT22;6091;51.432;6.880;2023-03-14T02:15:29;23.40;33.50
12060;DHT22;6091;51.432;6.880;2023-03-14T02:17:57;23.30;33.40
12060;DHT22;6091;51.432;6.880;2023-03-14T02:20:47;23.30;33.40
12060;DHT22;6091;51.432;6.880;2023-03-14T02:23:59;23.40;33.60
12060;DHT22;6091;51.432;6.880;2023-03-14T02:26:44;23.40;33.60
12060;DHT22;6091;51.432;6.880;2023-03-14T02:29:32;23.40;33.50
12060;DHT22;6091;51.432;6.880;2023-03-14T02:32:02;23.30;33.40
12060;DHT22;6091;51.432;6.880;2023-03-14T02:34:29;23.30;33.50
12060;DHT22;6091;51.432;6.880;2023-03-14T02:36:58;23.30;33.50
12060;DHT22;6091;51.432;6.880;2023-03-14T02:39:36;23.30;33.50
12060;DHT22;6091;51.432;6.880;2023-03-14T02:42:06;23.30;33.60
12060;DHT22;6091;51.432;6.880;2023-03-14T02:44:33;23.30;33.50
12060;DHT22;6091;51.432;6.880;2023-03-14T02:47:04;23.30;33.60
12060;DHT22;6091;51.432;6.880;2023-03-14T02:49:32;23.30;33.60
12060;DHT22;6091;51.432;6.880;2023-03-14T02:52:00;23.30;33.60
12060;DHT22;6091;51.432;6.880;2023-03-14T02:54:27;23.20;33.50
12060;DHT22;6091;51.432;6.880;2023-03-14T02:56:54;23.30;33.60
12060;DHT22;6091;51.432;6.880;2023-03-14T02:59:21;23.20;33.60
12060;DHT22;6091;51.432;6.880;2023-03-14T03:01:47;23.30;33.60
12060;DHT22;6091;51.432;6.880;2023-03-14T03:04:14;23.20;33.50
12060;DHT22;6091;51.432;6.880;2023-03-14T03:06:41;23.20;33.60
12060;DHT22;6091;51.432;6.880;2023-03-14T03:09:09;23.20;33.60
12060;DHT22;6091;51.432;6.880;2023-03-14T03:11:36;23.20;33.60
12060;DHT22;6091;51.432;6.880;2023-03-14T03:14:03;23.20;33.60
12060;DHT22;6091;51.432;6.880;2023-03-14T03:16:30;23.20;33.60
12060;DHT22;6091;51.432;6.880;2023-03-14T03:18:57;23.20;33.60
12060;DHT22;6091;51.432;6.880;2023-03-14T03:21:24;23.20;33.60
12060;DHT22;6091;51.432;6.880;2023-03-14T03:23:51;23.20;33.60
12060;DHT22;6091;51.432;6.880;2023-03-14T03:26:17;23.20;33.60
12060;DHT22;6091;51.432;6.880;2023-03-14T03:28:44;23.20;33.60
12060;DHT22;6091;51.432;6.880;2023-03-14T03:31:12;23.20;33.60
12060;DHT22;6091;51.432;6.880;2023-03-14T03:33:39;23.20;33.70
12060;DHT22;6091;51.432;6.880;2023-03-14T03:36:06;23.20;33.60
12060;DHT22;6091;51.432;6.880;2023-03-14T03:38:34;23.20;33.70
12060;DHT22;6091;51.432;6.880;2023-03-14T03:41:06;23.20;33.70
12060;DHT22;6091;51.432;6.880;2023-03-14T03:43:34;23.20;33.70
12060;DHT22;6091;51.432;6.880;2023-03-14T03:46:04;23.20;33.70
12060;DHT22;6091;51.432;6.880;2023-03-14T03:48:32;23.20;33.70
12060;DHT22;6091;51.432;6.880;2023-03-14T03:50:59;23.20;33.70
12060;DHT22;6091;51.432;6.880;2023-03-14T03:53:27;23.20;33.70
12060;DHT22;6091;51.432;6.880;2023-03-14T03:55:59;23.10;33.70
12060;DHT22;6091;51.432;6.880;2023-03-14T03:58:27;23.10;33.60
12060;DHT22;6091;51.432;6.880;2023-03-14T04:00:54;23.10;33.70
12060;DHT22;6091;51.432;6.880;2023-03-14T04:03:21;23.10;33.60
12060;DHT22;6091;51.432;6.880;2023-03-14T04:08:30;23.20;33.80
12060;DHT22;6091;51.432;6.880;2023-03-14T04:10:59;23.10;33.70
12060;DHT22;6091;51.432;6.880;2023-03-14T04:13:27;23.10;33.70
12060;DHT22;6091;51.432;6.880;2023-03-14T04:15:58;23.10;33.70
12060;DHT22;6091;51.432;6.880;2023-03-14T04:18:26;23.10;33.70
12060;DHT22;6091;51.432;6.880;2023-03-14T04:20:54;23.10;33.70
12060;DHT22;6091;51.432;6.880;2023-03-14T04:23:24;23.10;33.70
12060;DHT22;6091;51.432;6.880;2023-03-14T04:25:52;23.10;33.70
12060;DHT22;6091;51.432;6.880;2023-03-14T04:28:20;23.10;33.80
12060;DHT22;6091;51.432;6.880;2023-03-14T04:30:47;23.10;33.90
12060;DHT22;6091;51.432;6.880;2023-03-14T04:33:14;23.10;33.70
12060;DHT22;6091;51.432;6.880;2023-03-14T04:35:44;23.00;33.70
12060;DHT22;6091;51.432;6.880;2023-03-14T04:38:13;23.00;33.70
12060;DHT22;6091;51.432;6.880;2023-03-14T04:40:40;23.00;33.70
12060;DHT22;6091;51.432;6.880;2023-03-14T04:43:09;23.10;33.80
12060;DHT22;6091;51.432;6.880;2023-03-14T04:45:41;23.00;33.70
12060;DHT22;6091;51.432;6.880;2023-03-14T04:48:08;23.00;33.70
12060;DHT22;6091;51.432;6.880;2023-03-14T04:50:35;23.00;33.70
12060;DHT22;6091;51.432;6.880;2023-03-14T04:53:02;23.00;33.70
12060;DHT22;6091;51.432;6.880;2023-03-14T04:55:30;23.00;33.80
12060;DHT22;6091;51.432;6.880;2023-03-14T04:57:59;23.00;33.70
12060;DHT22;6091;51.432;6.880;2023-03-14T05:00:26;23.00;33.80
12060;DHT22;6091;51.432;6.880;2023-03-14T05:02:53;23.00;33.80
12060;DHT22;6091;51.432;6.880;2023-03-14T05:05:20;22.90;34.50
12060;DHT22;6091;51.432;6.880;2023-03-14T05:07:48;22.90;33.70
12060;DHT22;6091;51.432;6.880;2023-03-14T05:10:16;22.90;33.80
12060;DHT22;6091;51.432;6.880;2023-03-14T05:12:43;22.90;33.80
12060;DHT22;6091;51.432;6.880;2023-03-14T05:15:10;23.00;33.80
12060;DHT22;6091;51.432;6.880;2023-03-14T05:17:37;22.90;33.80
12060;DHT22;6091;51.432;6.880;2023-03-14T05:20:08;22.90;33.80
12060;DHT22;6091;51.432;6.880;2023-03-14T05:22:36;22.90;33.80
12060;DHT22;6091;51.432;6.880;2023-03-14T05:25:03;22.90;33.90
12060;DHT22;6091;51.432;6.880;2023-03-14T05:27:31;22.90;34.40
12060;DHT22;6091;51.432;6.880;2023-03-14T05:29:58;22.90;33.80
12060;DHT22;6091;51.432;6.880;2023-03-14T05:32:25;22.90;33.80
12060;DHT22;6091;51.432;6.880;2023-03-14T05:34:53;22.90;33.80
12060;DHT22;6091;51.432;6.880;2023-03-14T05:37:20;22.90;33.90
12060;DHT22;6091;51.432;6.880;2023-03-14T05:39:47;22.80;33.80
12060;DHT22;6091;51.432;6.880;2023-03-14T05:42:14;22.90;33.90
12060;DHT22;6091;51.432;6.880;2023-03-14T05:44:42;22.80;33.80
12060;DHT22;6091;51.432;6.880;2023-03-14T05:47:09;22.80;33.80
12060;DHT22;6091;51.432;6.880;2023-03-14T05:49:39;22.90;33.90
12060;DHT22;6091;51.432;6.880;2023-03-14T05:52:07;22.80;34.10
12060;DHT22;6091;51.432;6.880;2023-03-14T05:54:35;22.80;33.90
12060;DHT22;6091;51.432;6.880;2023-03-14T05:57:04;22.80;33.90
12060;DHT22;6091;51.432;6.880;2023-03-14T05:59:32;22.80;33.90
12060;DHT22;6091;51.432;6.880;2023-03-14T06:01:59;22.80;33.90
12060;DHT22;6091;51.432;6.880;2023-03-14T06:04:26;22.80;34.50
12060;DHT22;6091;51.432;6.880;2023-03-14T06:06:53;22.80;33.90
12060;DHT22;6091;51.432;6.880;2023-03-14T06:09:21;22.80;33.80
12060;DHT22;6091;51.432;6.880;2023-03-14T06:11:52;22.80;33.90
12060;DHT22;6091;51.432;6.880;2023-03-14T06:14:19;22.80;33.90
12060;DHT22;6091;51.432;6.880;2023-03-14T06:16:46;22.80;34.00
12060;DHT22;6091;51.432;6.880;2023-03-14T06:19:15;22.80;34.00
12060;DHT22;6091;51.432;6.880;2023-03-14T06:21:46;22.80;34.00
12060;DHT22;6091;51.432;6.880;2023-03-14T06:24:13;22.80;34.00
12060;DHT22;6091;51.432;6.880;2023-03-14T06:26:40;22.80;34.00
12060;DHT22;6091;51.432;6.880;2023-03-14T06:29:10;22.80;34.00
12060;DHT22;6091;51.432;6.880;2023-03-14T06:31:37;22.70;33.90
12060;DHT22;6091;51.432;6.880;2023-03-14T06:34:05;22.80;34.00
12060;DHT22;6091;51.432;6.880;2023-03-14T06:36:32;22.70;33.90
12060;DHT22;6091;51.432;6.880;2023-03-14T06:39:00;22.80;34.10
12060;DHT22;6091;51.432;6.880;2023-03-14T06:41:30;22.80;34.20
12060;DHT22;6091;51.432;6.880;2023-03-14T06:43:57;22.80;34.30
12060;DHT22;6091;51.432;6.880;2023-03-14T06:46:24;22.80;34.40
12060;DHT22;6091;51.432;6.880;2023-03-14T06:48:52;22.90;34.60
12060;DHT22;6091;51.432;6.880;2023-03-14T06:51:20;23.00;34.70
12060;DHT22;6091;51.432;6.880;2023-03-14T06:53:47;23.00;34.70
12060;DHT22;6091;51.432;6.880;2023-03-14T06:56:14;23.10;34.80
12060;DHT22;6091;51.432;6.880;2023-03-14T06:58:41;23.20;34.80
12060;DHT22;6091;51.432;6.880;2023-03-14T07:01:24;23.30;34.80
12060;DHT22;6091;51.432;6.880;2023-03-14T07:03:54;23.50;34.90
12060;DHT22;6091;51.432;6.880;2023-03-14T07:06:24;23.60;34.90
12060;DHT22;6091;51.432;6.880;2023-03-14T07:08:52;23.70;35.00
12060;DHT22;6091;51.432;6.880;2023-03-14T07:11:19;23.80;35.00
12060;DHT22;6091;51.432;6.880;2023-03-14T07:13:46;23.90;35.00
12060;DHT22;6091;51.432;6.880;2023-03-14T07:16:13;24.10;35.30
12060;DHT22;6091;51.432;6.880;2023-03-14T07:18:40;24.20;35.20
12060;DHT22;6091;51.432;6.880;2023-03-14T07:21:08;24.30;35.10
12060;DHT22;6091;51.432;6.880;2023-03-14T07:23:36;24.40;35.10
12060;DHT22;6091;51.432;6.880;2023-03-14T07:26:04;24.50;35.10
12060;DHT22;6091;51.432;6.880;2023-03-14T07:28:31;24.60;35.10
12060;DHT22;6091;51.432;6.880;2023-03-14T07:30:59;24.70;35.10
12060;DHT22;6091;51.432;6.880;2023-03-14T07:33:26;24.80;35.20
12060;DHT22;6091;51.432;6.880;2023-03-14T07:35:53;24.90;35.20
12060;DHT22;6091;51.432;6.880;2023-03-14T07:38:22;24.90;35.10
12060;DHT22;6091;51.432;6.880;2023-03-14T07:40:49;25.00;35.10
12060;DHT22;6091;51.432;6.880;2023-03-14T07:43:17;25.20;35.70
12060;DHT22;6091;51.432;6.880;2023-03-14T07:45:46;25.20;35.00
12060;DHT22;6091;51.432;6.880;2023-03-14T07:48:25;25.30;35.00
12060;DHT22;6091;51.432;6.880;2023-03-14T07:50:55;25.30;34.90
12060;DHT22;6091;51.432;6.880;2023-03-14T07:53:24;25.40;34.90
12060;DHT22;6091;51.432;6.880;2023-03-14T07:55:52;25.50;34.90
12060;DHT22;6091;51.432;6.880;2023-03-14T07:58:21;25.50;34.90
12060;DHT22;6091;51.432;6.880;2023-03-14T08:00:49;25.60;34.80
12060;DHT22;6091;51.432;6.880;2023-03-14T08:03:17;25.60;34.70
12060;DHT22;6091;51.432;6.880;2023-03-14T08:05:49;25.70;34.70
12060;DHT22;6091;51.432;6.880;2023-03-14T08:08:18;25.70;34.60
12060;DHT22;6091;51.432;6.880;2023-03-14T08:10:45;25.80;34.60
12060;DHT22;6091;51.432;6.880;2023-03-14T08:13:13;25.80;34.60
12060;DHT22;6091;51.432;6.880;2023-03-14T08:15:46;25.80;34.60
12060;DHT22;6091;51.432;6.880;2023-03-14T08:18:15;25.80;34.60
12060;DHT22;6091;51.432;6.880;2023-03-14T08:20:42;25.80;34.50
12060;DHT22;6091;51.432;6.880;2023-03-14T08:23:09;25.90;34.60
12060;DHT22;6091;51.432;6.880;2023-03-14T08:25:37;25.90;34.50
12060;DHT22;6091;51.432;6.880;2023-03-14T08:28:07;25.90;34.50
12060;DHT22;6091;51.432;6.880;2023-03-14T08:30:34;26.00;34.60
12060;DHT22;6091;51.432;6.880;2023-03-14T08:33:02;25.90;34.50
12060;DHT22;6091;51.432;6.880;2023-03-14T08:35:29;26.00;34.50
12060;DHT22;6091;51.432;6.880;2023-03-14T08:37:57;26.00;34.50
12060;DHT22;6091;51.432;6.880;2023-03-14T08:40:24;26.00;34.50
12060;DHT22;6091;51.432;6.880;2023-03-14T08:42:51;26.00;34.50
12060;DHT22;6091;51.432;6.880;2023-03-14T08:45:19;26.00;34.60
12060;DHT22;6091;51.432;6.880;2023-03-14T08:47:47;25.90;34.30
12060;DHT22;6091;51.432;6.880;2023-03-14T08:50:14;25.90;34.30
12060;DHT22;6091;51.432;6.880;2023-03-14T08:52:45;25.90;34.30
12060;DHT22;6091;51.432;6.880;2023-03-14T08:55:12;25.80;34.30
12060;DHT22;6091;51.432;6.880;2023-03-14T08:57:39;25.80;34.30
12060;DHT22;6091;51.432;6.880;2023-03-14T09:00:07;25.80;34.30
12060;DHT22;6091;51.432;6.880;2023-03-14T09:02:37;25.80;34.30
12060;DHT22;6091;51.432;6.880;2023-03-14T09:05:05;25.80;34.30
12060;DHT22;6091;51.432;6.880;2023-03-14T09:07:33;25.80;34.30
12060;DHT22;6091;51.432;6.880;2023-03-14T09:10:00;25.80;34.30
12060;DHT22;6091;51.432;6.880;2023-03-14T09:12:27;25.80;34.30
12060;DHT22;6091;51.432;6.880;2023-03-14T09:14:54;25.80;34.20
12060;DHT22;6091;51.432;6.880;2023-03-14T09:17:22;25.80;34.20
12060;DHT22;6091;51.432;6.880;2023-03-14T09:19:49;25.90;34.30
12060;DHT22;6091;51.432;6.880;2023-03-14T09:22:16;25.90;34.30
12060;DHT22;6091;51.432;6.880;2023-03-14T09:24:43;25.90;34.20
12060;DHT22;6091;51.432;6.880;2023-03-14T09:27:10;25.90;34.20
12060;DHT22;6091;51.432;6.880;2023-03-14T09:29:40;26.00;34.20
12060;DHT22;6091;51.432;6.880;2023-03-14T09:32:08;26.00;34.20
12060;DHT22;6091;51.432;6.880;2023-03-14T09:34:35;26.00;34.20
12060;DHT22;6091;51.432;6.880;2023-03-14T09:37:02;26.00;34.10
12060;DHT22;6091;51.432;6.880;2023-03-14T09:39:29;26.00;34.10
12060;DHT22;6091;51.432;6.880;2023-03-14T09:41:58;26.00;34.00
12060;DHT22;6091;51.432;6.880;2023-03-14T09:44:38;26.10;34.00
12060;DHT22;6091;51.432;6.880;2023-03-14T09:47:13;26.10;33.90
12060;DHT22;6091;51.432;6.880;2023-03-14T09:49:43;26.10;34.00
12060;DHT22;6091;51.432;6.880;2023-03-14T09:52:30;26.10;33.90
12060;DHT22;6091;51.432;6.880;2023-03-14T09:55:11;26.10;33.90
12060;DHT22;6091;51.432;6.880;2023-03-14T09:57:42;26.20;33.90
12060;DHT22;6091;51.432;6.880;2023-03-14T10:00:20;26.00;33.90
12060;DHT22;6091;51.432;6.880;2023-03-14T10:05:41;26.10;33.70
12060;DHT22;6091;51.432;6.880;2023-03-14T10:08:13;26.00;33.70
12060;DHT22;6091;51.432;6.880;2023-03-14T10:10:41;26.00;33.70
12060;DHT22;6091;51.432;6.880;2023-03-14T10:16:04;26.00;33.70
12060;DHT22;6091;51.432;6.880;2023-03-14T10:18:34;26.00;33.30
12060;DHT22;6091;51.432;6.880;2023-03-14T10:21:06;25.90;33.20
12060;DHT22;6091;51.432;6.880;2023-03-14T10:23:34;25.90;33.10
12060;DHT22;6091;51.432;6.880;2023-03-14T10:26:05;25.80;33.10
12060;DHT22;6091;51.432;6.880;2023-03-14T10:28:49;25.90;33.40
12060;DHT22;6091;51.432;6.880;2023-03-14T10:31:19;25.60;33.40
12060;DHT22;6091;51.432;6.880;2023-03-14T10:34:00;25.60;33.60
12060;DHT22;6091;51.432;6.880;2023-03-14T10:36:30;25.50;34.00
12060;DHT22;6091;51.432;6.880;2023-03-14T10:42:14;25.60;34.00
12060;DHT22;6091;51.432;6.880;2023-03-14T10:44:58;25.70;34.10
12060;DHT22;6091;51.432;6.880;2023-03-14T10:47:32;25.60;34.00
12060;DHT22;6091;51.432;6.880;2023-03-14T10:50:24;25.70;34.00
12060;DHT22;6091;51.432;6.880;2023-03-14T10:52:55;25.80;34.00
12060;DHT22;6091;51.432;6.880;2023-03-14T10:55:40;25.80;34.10
12060;DHT22;6091;51.432;6.880;2023-03-14T10:58:21;25.90;34.00
12060;DHT22;6091;51.432;6.880;2023-03-14T11:07:24;26.00;33.90
12060;DHT22;6091;51.432;6.880;2023-03-14T11:10:43;26.10;33.90
12060;DHT22;6091;51.432;6.880;2023-03-14T11:17:30;26.20;33.30
12060;DHT22;6091;51.432;6.880;2023-03-14T11:20:45;26.20;32.60
12060;DHT22;6091;51.432;6.880;2023-03-14T11:23:26;26.00;32.50
12060;DHT22;6091;51.432;6.880;2023-03-14T11:26:26;26.00;33.10
12060;DHT22;6091;51.432;6.880;2023-03-14T11:29:29;26.10;33.20
12060;DHT22;6091;51.432;6.880;2023-03-14T11:34:54;26.20;33.40
12060;DHT22;6091;51.432;6.880;2023-03-14T11:37:36;26.20;33.40
12060;DHT22;6091;51.432;6.880;2023-03-14T11:40:16;26.30;33.50
12060;DHT22;6091;51.432;6.880;2023-03-14T11:42:54;26.30;33.40
12060;DHT22;6091;51.432;6.880;2023-03-14T11:45:35;26.40;33.40
12060;DHT22;6091;51.432;6.880;2023-03-14T11:51:13;26.40;33.50
12060;DHT22;6091;51.432;6.880;2023-03-14T11:57:01;26.50;33.60
12060;DHT22;6091;51.432;6.880;2023-03-14T12:05:56;26.70;33.60
12060;DHT22;6091;51.432;6.880;2023-03-14T12:08:49;26.70;33.60
12060;DHT22;6091;51.432;6.880;2023-03-14T12:11:48;26.60;33.60
12060;DHT22;6091;51.432;6.880;2023-03-14T12:14:36;26.70;33.70
12060;DHT22;6091;51.432;6.880;2023-03-14T12:17:25;26.80;33.80
12060;DHT22;6091;51.432;6.880;2023-03-14T12:22:47;26.90;34.00
12060;DHT22;6091;51.432;6.880;2023-03-14T12:25:36;27.00;34.00
12060;DHT22;6091;51.432;6.880;2023-03-14T12:28:20;27.10;33.80
12060;DHT22;6091;51.432;6.880;2023-03-14T12:30:56;27.20;33.80
12060;DHT22;6091;51.432;6.880;2023-03-14T12:45:30;27.60;33.10
12060;DHT22;6091;51.432;6.880;2023-03-14T12:48:08;30.20;34.70
12060;DHT22;6091;51.432;6.880;2023-03-14T12:56:23;26.60;32.50
12060;DHT22;6091;51.432;6.880;2023-03-14T13:02:29;27.40;33.10
12060;DHT22;6091;51.432;6.880;2023-03-14T13:05:12;27.20;33.30
12060;DHT22;6091;51.432;6.880;2023-03-14T13:10:23;27.30;33.60
12060;DHT22;6091;51.432;6.880;2023-03-14T13:13:03;27.30;33.60
12060;DHT22;6091;51.432;6.880;2023-03-14T13:15:43;27.40;33.60
12060;DHT22;6091;51.432;6.880;2023-03-14T13:18:27;27.30;33.70
12060;DHT22;6091;51.432;6.880;2023-03-14T13:26:49;27.40;33.60
12060;DHT22;6091;51.432;6.880;2023-03-14T13:29:17;27.40;33.90
12060;DHT22;6091;51.432;6.880;2023-03-14T13:31:49;27.40;33.40
12060;DHT22;6091;51.432;6.880;2023-03-14T13:34:19;27.30;33.30
12060;DHT22;6091;51.432;6.880;2023-03-14T13:36:52;27.30;33.30
12060;DHT22;6091;51.432;6.880;2023-03-14T13:39:25;27.30;33.20
12060;DHT22;6091;51.432;6.880;2023-03-14T13:41:58;27.20;33.20
12060;DHT22;6091;51.432;6.880;2023-03-14T13:47:05;27.20;33.30
12060;DHT22;6091;51.432;6.880;2023-03-14T13:49:41;27.20;33.10
12060;DHT22;6091;51.432;6.880;2023-03-14T13:52:30;27.10;33.20
12060;DHT22;6091;51.432;6.880;2023-03-14T13:55:03;27.20;33.20
12060;DHT22;6091;51.432;6.880;2023-03-14T14:00:25;27.20;33.30
12060;DHT22;6091;51.432;6.880;2023-03-14T14:02:59;27.20;33.30
12060;DHT22;6091;51.432;6.880;2023-03-14T14:05:29;27.30;33.40
12060;DHT22;6091;51.432;6.880;2023-03-14T14:07:58;27.40;33.40
12060;DHT22;6091;51.432;6.880;2023-03-14T14:10:36;27.40;33.50
12060;DHT22;6091;51.432;6.880;2023-03-14T14:13:13;27.50;33.00
12060;DHT22;6091;51.432;6.880;2023-03-14T14:15:48;27.60;32.80
12060;DHT22;6091;51.432;6.880;2023-03-14T14:18:23;27.60;32.50
12060;DHT22;6091;51.432;6.880;2023-03-14T14:20:54;27.60;32.50
12060;DHT22;6091;51.432;6.880;2023-03-14T14:23:28;30.20;34.40
12060;DHT22;6091;51.432;6.880;2023-03-14T14:26:01;27.70;32.50
12060;DHT22;6091;51.432;6.880;2023-03-14T14:28:36;27.80;32.70
12060;DHT22;6091;51.432;6.880;2023-03-14T14:36:29;28.10;32.60
12060;DHT22;6091;51.432;6.880;2023-03-14T14:41:41;28.20;32.50
12060;DHT22;6091;51.432;6.880;2023-03-14T14:44:12;28.40;32.60
12060;DHT22;6091;51.432;6.880;2023-03-14T14:46:42;28.40;32.60
12060;DHT22;6091;51.432;6.880;2023-03-14T14:49:13;28.50;32.60
12060;DHT22;6091;51.432;6.880;2023-03-14T14:51:43;28.60;32.50
12060;DHT22;6091;51.432;6.880;2023-03-14T14:54:34;28.70;32.50
12060;DHT22;6091;51.432;6.880;2023-03-14T14:57:18;28.80;32.20
12060;DHT22;6091;51.432;6.880;2023-03-14T14:59:55;28.90;32.60
12060;DHT22;6091;51.432;6.880;2023-03-14T15:02:51;28.90;32.10
12060;DHT22;6091;51.432;6.880;2023-03-14T15:05:23;28.80;31.60
12060;DHT22;6091;51.432;6.880;2023-03-14T15:07:54;28.80;31.80
12060;DHT22;6091;51.432;6.880;2023-03-14T15:10:24;28.80;31.70
12060;DHT22;6091;51.432;6.880;2023-03-14T15:12:53;28.70;31.60
12060;DHT22;6091;51.432;6.880;2023-03-14T15:15:21;28.70;31.60
12060;DHT22;6091;51.432;6.880;2023-03-14T15:17:48;28.50;31.50
12060;DHT22;6091;51.432;6.880;2023-03-14T15:20:17;28.50;31.70
12060;DHT22;6091;51.432;6.880;2023-03-14T15:22:47;28.50;31.50
12060;DHT22;6091;51.432;6.880;2023-03-14T15:25:14;26.10;30.10
12060;DHT22;6091;51.432;6.880;2023-03-14T15:28:02;28.40;31.50
12060;DHT22;6091;51.432;6.880;2023-03-14T15:30:30;28.30;31.50
12060;DHT22;6091;51.432;6.880;2023-03-14T15:32:57;28.30;31.50
12060;DHT22;6091;51.432;6.880;2023-03-14T15:35:28;28.20;31.40
12060;DHT22;6091;51.432;6.880;2023-03-14T15:38:01;28.20;31.50
12060;DHT22;6091;51.432;6.880;2023-03-14T15:40:29;28.10;32.00
12060;DHT22;6091;51.432;6.880;2023-03-14T15:42:57;28.00;31.40
12060;DHT22;6091;51.432;6.880;2023-03-14T15:45:24;28.00;31.40
12060;DHT22;6091;51.432;6.880;2023-03-14T15:47:52;27.90;31.40
12060;DHT22;6091;51.432;6.880;2023-03-14T15:50:19;27.80;31.60
12060;DHT22;6091;51.432;6.880;2023-03-14T15:52:46;27.70;31.40
12060;DHT22;6091;51.432;6.880;2023-03-14T15:55:14;27.70;31.50
12060;DHT22;6091;51.432;6.880;2023-03-14T15:57:45;28.40;32.60
12060;DHT22;6091;51.432;6.880;2023-03-14T16:00:15;27.60;31.50
12060;DHT22;6091;51.432;6.880;2023-03-14T16:02:48;27.60;31.60
12060;DHT22;6091;51.432;6.880;2023-03-14T16:05:15;27.50;31.60
12060;DHT22;6091;51.432;6.880;2023-03-14T16:07:44;27.50;31.60
12060;DHT22;6091;51.432;6.880;2023-03-14T16:10:13;27.40;31.50
12060;DHT22;6091;51.432;6.880;2023-03-14T16:12:42;27.40;31.70
12060;DHT22;6091;51.432;6.880;2023-03-14T16:15:09;27.30;31.50
12060;DHT22;6091;51.432;6.880;2023-03-14T16:17:37;27.20;31.50
12060;DHT22;6091;51.432;6.880;2023-03-14T16:20:12;27.20;31.60
12060;DHT22;6091;51.432;6.880;2023-03-14T16:22:42;27.20;31.60
12060;DHT22;6091;51.432;6.880;2023-03-14T16:25:11;27.10;31.60
12060;DHT22;6091;51.432;6.880;2023-03-14T16:27:38;27.10;31.90
12060;DHT22;6091;51.432;6.880;2023-03-14T16:30:06;27.00;31.60
12060;DHT22;6091;51.432;6.880;2023-03-14T16:32:35;27.00;31.70
12060;DHT22;6091;51.432;6.880;2023-03-14T16:35:05;26.90;31.70
12060;DHT22;6091;51.432;6.880;2023-03-14T16:37:33;26.90;31.70
12060;DHT22;6091;51.432;6.880;2023-03-14T16:40:01;26.90;31.70
12060;DHT22;6091;51.432;6.880;2023-03-14T16:42:43;26.90;31.80
12060;DHT22;6091;51.432;6.880;2023-03-14T16:45:35;26.80;31.70
12060;DHT22;6091;51.432;6.880;2023-03-14T16:48:03;26.90;31.80
12060;DHT22;6091;51.432;6.880;2023-03-14T16:50:30;26.80;31.80
12060;DHT22;6091;51.432;6.880;2023-03-14T16:52:57;26.80;31.80
12060;DHT22;6091;51.432;6.880;2023-03-14T16:55:25;26.80;31.90
12060;DHT22;6091;51.432;6.880;2023-03-14T16:57:54;26.70;31.90
12060;DHT22;6091;51.432;6.880;2023-03-14T17:00:22;26.70;31.80
12060;DHT22;6091;51.432;6.880;2023-03-14T17:02:49;26.60;31.80
12060;DHT22;6091;51.432;6.880;2023-03-14T17:05:17;26.50;31.70
12060;DHT22;6091;51.432;6.880;2023-03-14T17:07:46;26.60;31.90
12060;DHT22;6091;51.432;6.880;2023-03-14T17:10:15;26.50;31.80
12060;DHT22;6091;51.432;6.880;2023-03-14T17:12:44;26.50;31.90
12060;DHT22;6091;51.432;6.880;2023-03-14T17:15:11;26.50;31.90
12060;DHT22;6091;51.432;6.880;2023-03-14T17:17:39;26.40;31.90
12060;DHT22;6091;51.432;6.880;2023-03-14T17:20:08;26.30;31.80
12060;DHT22;6091;51.432;6.880;2023-03-14T17:22:35;26.40;32.50
12060;DHT22;6091;51.432;6.880;2023-03-14T17:25:03;26.30;31.90
12060;DHT22;6091;51.432;6.880;2023-03-14T17:27:30;26.30;31.90
12060;DHT22;6091;51.432;6.880;2023-03-14T17:29:58;26.20;31.90
12060;DHT22;6091;51.432;6.880;2023-03-14T17:32:28;26.20;31.90
12060;DHT22;6091;51.432;6.880;2023-03-14T17:34:55;26.20;31.90
12060;DHT22;6091;51.432;6.880;2023-03-14T17:37:22;26.10;32.00
12060;DHT22;6091;51.432;6.880;2023-03-14T17:39:58;26.00;32.00